createdAt,value
2022-09-07T00:02:19.923Z,1.70
2022-09-07T00:04:53.090Z,1.40
2022-09-07T00:07:25.530Z,1.95
2022-09-07T00:09:58.006Z,1.63
2022-09-07T00:12:30.488Z,1.25
2022-09-07T00:15:07.544Z,1.98
2022-09-07T00:17:40.038Z,1.10
2022-09-07T00:20:14.362Z,1.42
2022-09-07T00:22:46.799Z,1.42
2022-09-07T00:25:19.238Z,1.35
2022-09-07T00:27:51.678Z,1.42
2022-09-07T00:30:24.142Z,1.45
2022-09-07T00:32:56.594Z,1.60
2022-09-07T00:35:29.710Z,1.45
2022-09-07T00:38:02.160Z,1.38
2022-09-07T00:40:35.299Z,1.65
2022-09-07T00:43:27.768Z,1.77
2022-09-07T00:46:00.355Z,1.30
2022-09-07T00:48:38.662Z,1.23
2022-09-07T00:51:16.719Z,1.73
2022-09-07T00:53:53.696Z,1.30
2022-09-07T00:56:31.402Z,1.80
2022-09-07T00:59:04.634Z,1.88
2022-09-07T01:01:38.784Z,1.10
2022-09-07T01:04:11.552Z,1.27
2022-09-07T01:06:44.801Z,0.80
2022-09-07T01:09:22.243Z,1.13
2022-09-07T01:11:58.555Z,1.50
2022-09-07T01:14:33.649Z,1.48
2022-09-07T01:17:16.415Z,1.58
2022-09-07T01:20:10.198Z,0.98
2022-09-07T01:23:00.191Z,1.60
2022-09-07T01:25:43.587Z,1.80
2022-09-07T01:28:20.298Z,1.33
2022-09-07T01:30:56.855Z,1.85
2022-09-07T01:33:51.489Z,1.30
2022-09-07T01:36:33.424Z,1.25
2022-09-07T01:39:06.253Z,1.15
2022-09-07T01:41:47.457Z,1.13
2022-09-07T01:44:24.706Z,1.38
2022-09-07T01:47:02.166Z,1.63
2022-09-07T01:49:38.614Z,1.40
2022-09-07T01:52:17.195Z,1.15
2022-09-07T01:54:54.812Z,1.95
2022-09-07T01:57:33.338Z,1.50
2022-09-07T02:00:09.927Z,1.83
2022-09-07T02:02:51.356Z,1.33
2022-09-07T02:05:27.820Z,1.60
2022-09-07T02:08:06.291Z,1.48
2022-09-07T02:10:41.438Z,1.55
2022-09-07T02:13:19.783Z,1.52
2022-09-07T02:15:57.897Z,2.65
2022-09-07T02:18:36.970Z,2.78
2022-09-07T02:21:10.453Z,1.80
2022-09-07T02:23:48.867Z,2.08
2022-09-07T02:26:24.928Z,2.10
2022-09-07T02:28:57.559Z,1.88
2022-09-07T02:31:30.940Z,1.42
2022-09-07T02:34:03.835Z,1.23
2022-09-07T02:36:43.326Z,1.70
2022-09-07T02:39:15.767Z,2.13
2022-09-07T02:41:48.228Z,1.63
2022-09-07T02:44:23.188Z,1.60
2022-09-07T02:47:08.763Z,1.33
2022-09-07T02:50:02.003Z,1.50
2022-09-07T02:52:44.079Z,2.08
2022-09-07T02:55:30.248Z,1.80
2022-09-07T02:58:18.445Z,2.13
2022-09-07T03:00:57.912Z,1.55
2022-09-07T03:03:42.391Z,2.20
2022-09-07T03:06:23.204Z,1.92
2022-09-07T03:08:59.220Z,1.50
2022-09-07T03:11:31.895Z,1.38
2022-09-07T03:14:16.183Z,1.63
2022-09-07T03:16:50.115Z,1.52
2022-09-07T03:19:23.242Z,1.42
2022-09-07T03:21:55.634Z,1.85
2022-09-07T03:24:28.116Z,1.10
2022-09-07T03:27:00.562Z,1.73
2022-09-07T03:29:32.990Z,2.17
2022-09-07T03:32:05.662Z,1.33
2022-09-07T03:34:38.745Z,2.15
2022-09-07T03:37:11.117Z,1.95
2022-09-07T03:39:43.576Z,1.63
2022-09-07T03:42:16.042Z,1.13
2022-09-07T03:44:48.799Z,2.70
2022-09-07T03:47:21.274Z,1.83
2022-09-07T03:49:54.455Z,2.50
2022-09-07T03:52:26.894Z,2.03
2022-09-07T03:54:59.438Z,1.50
2022-09-07T03:57:32.000Z,1.45
2022-09-07T04:00:05.135Z,1.90
2022-09-07T04:02:44.870Z,2.03
2022-09-07T04:05:18.046Z,1.50
2022-09-07T04:07:51.818Z,1.70
2022-09-07T04:10:24.304Z,1.90
2022-09-07T04:12:56.707Z,1.25
2022-09-07T04:15:29.207Z,1.02
2022-09-07T04:18:01.797Z,1.23
2022-09-07T04:20:34.914Z,1.77
2022-09-07T04:23:07.370Z,1.70
2022-09-07T04:25:47.122Z,2.28
2022-09-07T04:30:52.747Z,1.80
2022-09-07T04:33:25.195Z,1.58
2022-09-07T04:35:59.779Z,1.35
2022-09-07T04:38:32.362Z,1.60
2022-09-07T04:41:07.559Z,1.48
2022-09-07T04:43:40.778Z,2.08
2022-09-07T04:46:18.949Z,1.67
2022-09-07T04:48:53.435Z,1.75
2022-09-07T04:51:28.338Z,1.55
2022-09-07T04:54:02.296Z,2.70
2022-09-07T04:56:34.851Z,1.50
2022-09-07T04:59:07.447Z,1.63
2022-09-07T05:01:39.988Z,1.90
2022-09-07T05:04:12.502Z,1.85
2022-09-07T05:06:45.619Z,2.33
2022-09-07T05:09:18.054Z,2.88
2022-09-07T05:11:50.482Z,3.13
2022-09-07T05:14:22.922Z,2.42
2022-09-07T05:16:55.386Z,2.15
2022-09-07T05:19:27.946Z,2.17
2022-09-07T05:22:01.046Z,2.03
2022-09-07T05:24:36.014Z,2.65
2022-09-07T05:27:08.443Z,2.35
2022-09-07T05:32:33.270Z,2.47
2022-09-07T05:35:06.224Z,2.83
2022-09-07T05:37:41.971Z,2.78
2022-09-07T05:40:14.744Z,3.22
2022-09-07T05:42:47.322Z,2.47
2022-09-07T05:45:19.733Z,2.83
2022-09-07T05:47:53.581Z,2.67
2022-09-07T05:50:26.006Z,1.75
2022-09-07T05:52:59.240Z,2.00
2022-09-07T05:55:31.880Z,2.17
2022-09-07T05:58:04.443Z,2.17
2022-09-07T06:00:37.265Z,2.10
2022-09-07T06:03:09.793Z,2.03
2022-09-07T06:05:42.312Z,2.60
2022-09-07T06:08:15.440Z,2.38
2022-09-07T06:10:47.857Z,2.30
2022-09-07T06:13:20.267Z,2.15
2022-09-07T06:15:52.767Z,2.45
2022-09-07T06:18:29.463Z,1.90
2022-09-07T06:21:02.703Z,2.50
2022-09-07T06:23:37.679Z,2.63
2022-09-07T06:26:11.319Z,2.42
2022-09-07T06:28:47.727Z,2.67
2022-09-07T06:31:23.684Z,2.13
2022-09-07T06:33:56.693Z,2.38
2022-09-07T06:36:29.222Z,2.35
2022-09-07T06:39:02.347Z,1.70
2022-09-07T06:44:34.192Z,2.72
2022-09-07T06:47:06.612Z,2.40
2022-09-07T06:49:39.056Z,1.70
2022-09-07T06:52:11.511Z,2.38
2022-09-07T06:55:00.913Z,2.15
2022-09-07T06:57:33.733Z,2.88
2022-09-07T07:00:07.230Z,2.63
2022-09-07T07:02:39.612Z,1.73
2022-09-07T07:05:11.998Z,2.83
2022-09-07T07:07:44.425Z,2.67
2022-09-07T07:10:22.153Z,1.88
2022-09-07T07:12:57.574Z,1.83
2022-09-07T07:15:30.897Z,1.70
2022-09-07T07:18:19.687Z,2.72
2022-09-07T07:20:53.665Z,2.55
2022-09-07T07:23:26.045Z,2.22
2022-09-07T07:26:02.067Z,2.50
2022-09-07T07:31:27.875Z,2.17
2022-09-07T07:34:00.401Z,2.45
2022-09-07T07:36:32.835Z,2.25
2022-09-07T07:39:05.281Z,2.40
2022-09-07T07:41:55.367Z,2.30
2022-09-07T07:44:29.990Z,2.70
2022-09-07T07:47:02.488Z,2.55
2022-09-07T07:49:34.936Z,2.17
2022-09-07T07:55:00.213Z,1.83
2022-09-07T07:57:33.376Z,2.67
2022-09-07T08:00:06.897Z,2.75
2022-09-07T08:02:43.878Z,2.17
2022-09-07T08:05:17.682Z,2.10
2022-09-07T08:07:50.186Z,2.47
2022-09-07T08:10:26.366Z,2.20
2022-09-07T08:12:59.454Z,2.60
2022-09-07T08:15:31.824Z,2.45
2022-09-07T08:18:04.322Z,2.17
2022-09-07T08:20:36.575Z,4.45
2022-09-07T08:23:08.938Z,3.28
2022-09-07T08:25:49.281Z,2.50
2022-09-07T08:28:23.171Z,2.50
2022-09-07T08:30:56.743Z,2.38
2022-09-07T08:33:29.051Z,2.35
2022-09-07T08:36:03.030Z,2.20
2022-09-07T08:38:36.283Z,2.08
2022-09-07T08:41:31.732Z,2.58
2022-09-07T08:44:11.841Z,2.17
2022-09-07T08:46:47.669Z,2.25
2022-09-07T08:49:26.481Z,2.10
2022-09-07T08:52:02.074Z,1.95
2022-09-07T08:54:35.541Z,2.15
2022-09-07T09:06:01.674Z,2.17
2022-09-07T09:08:49.442Z,1.75
2022-09-07T09:11:33.078Z,2.20
2022-09-07T09:14:13.780Z,1.88
2022-09-07T09:16:50.610Z,2.20
2022-09-07T09:19:39.892Z,1.42
2022-09-07T09:24:49.747Z,1.73
2022-09-07T09:27:22.091Z,1.95
2022-09-07T09:29:54.433Z,1.58
2022-09-07T09:32:35.430Z,1.65
2022-09-07T09:35:15.430Z,1.80
2022-09-07T09:37:48.431Z,2.10
2022-09-07T09:40:24.404Z,1.30
2022-09-07T09:43:02.439Z,1.77
2022-09-07T09:48:33.437Z,1.70
2022-09-07T09:54:05.589Z,1.90
2022-09-07T09:56:39.809Z,2.45
2022-09-07T10:05:27.140Z,2.38
2022-09-07T10:10:32.234Z,2.03
2022-09-07T10:13:08.003Z,1.63
2022-09-07T10:15:41.602Z,2.47
2022-09-07T10:18:20.593Z,2.03
2022-09-07T10:20:52.913Z,1.77
2022-09-07T10:23:27.431Z,2.30
2022-09-07T10:26:20.854Z,2.08
2022-09-07T10:29:07.283Z,2.05
2022-09-07T10:31:53.926Z,1.70
2022-09-07T10:34:35.475Z,1.75
2022-09-07T10:37:09.844Z,1.38
2022-09-07T10:39:49.414Z,1.65
2022-09-07T10:42:28.398Z,2.03
2022-09-07T10:45:11.639Z,1.77
2022-09-07T10:48:00.170Z,1.60
2022-09-07T10:50:39.254Z,1.73
2022-09-07T10:53:41.942Z,2.08
2022-09-07T10:56:21.423Z,1.58
2022-09-07T10:59:05.851Z,1.70
2022-09-07T11:01:48.300Z,2.08
2022-09-07T11:04:48.559Z,2.03
2022-09-07T11:07:43.106Z,1.70
2022-09-07T11:10:25.453Z,2.10
2022-09-07T11:13:00.906Z,1.75
2022-09-07T11:15:39.666Z,2.42
2022-09-07T11:18:16.450Z,2.10
2022-09-07T11:20:54.611Z,1.85
2022-09-07T11:23:36.757Z,1.77
2022-09-07T11:26:17.387Z,1.92
2022-09-07T11:31:50.995Z,1.83
2022-09-07T11:34:29.212Z,1.58
2022-09-07T11:37:08.361Z,1.40
2022-09-07T11:39:46.119Z,1.80
2022-09-07T11:45:24.166Z,1.67
2022-09-07T11:50:37.761Z,1.50
2022-09-07T11:53:21.748Z,2.10
2022-09-07T11:55:57.050Z,1.75
2022-09-07T11:58:48.309Z,1.90
2022-09-07T12:01:33.326Z,1.92
2022-09-07T12:04:30.150Z,2.30
2022-09-07T12:07:36.296Z,1.55
2022-09-07T12:10:32.699Z,2.55
2022-09-07T12:13:30.861Z,2.00
2022-09-07T12:16:10.072Z,2.45
2022-09-07T12:19:11.931Z,1.70
2022-09-07T12:21:48.411Z,1.92
2022-09-07T12:24:40.215Z,1.80
2022-09-07T12:27:42.719Z,1.92
2022-09-07T12:30:53.861Z,1.63
2022-09-07T12:33:45.347Z,2.33
2022-09-07T12:36:41.432Z,1.98
2022-09-07T12:39:24.543Z,1.73
2022-09-07T12:42:37.550Z,2.03
2022-09-07T12:45:49.952Z,1.52
2022-09-07T12:48:35.218Z,1.75
2022-09-07T12:51:15.223Z,1.75
2022-09-07T12:53:58.475Z,1.83
2022-09-07T12:56:42.181Z,1.92
2022-09-07T12:59:45.143Z,1.63
2022-09-07T13:02:38.486Z,1.70
2022-09-07T13:05:19.865Z,2.22
2022-09-07T13:08:16.362Z,1.77
2022-09-07T13:10:49.486Z,1.77
2022-09-07T13:16:30.004Z,1.65
2022-09-07T13:19:04.866Z,1.80
2022-09-07T13:21:39.829Z,1.60
2022-09-07T13:24:46.515Z,1.80
2022-09-07T13:27:51.087Z,2.35
2022-09-07T13:30:43.781Z,1.50
2022-09-07T13:33:42.017Z,2.00
2022-09-07T13:36:24.754Z,2.20
2022-09-07T13:38:57.970Z,1.75
2022-09-07T13:41:36.826Z,1.55
2022-09-07T13:44:25.614Z,1.65
2022-09-07T13:49:55.670Z,1.67
2022-09-07T13:52:43.484Z,1.70
2022-09-07T13:55:29.135Z,1.50
2022-09-07T13:58:12.638Z,1.67
2022-09-07T14:00:56.096Z,1.63
2022-09-07T14:03:35.834Z,1.80
2022-09-07T14:06:26.073Z,2.20
2022-09-07T14:09:01.061Z,1.80
2022-09-07T14:11:42.224Z,1.70
2022-09-07T14:14:17.899Z,1.73
2022-09-07T14:16:56.174Z,1.92
2022-09-07T14:19:36.632Z,1.53
2022-09-07T14:22:13.957Z,1.70
2022-09-07T14:24:48.298Z,1.85
2022-09-07T14:27:22.945Z,1.80
2022-09-07T14:29:55.244Z,1.90
2022-09-07T14:32:27.730Z,1.77
2022-09-07T14:35:02.825Z,1.92
2022-09-07T14:37:36.575Z,2.28
2022-09-07T14:40:14.884Z,2.05
2022-09-07T14:42:49.855Z,2.10
2022-09-07T14:45:33.620Z,1.58
2022-09-07T14:48:13.055Z,1.40
2022-09-07T14:51:00.869Z,1.77
2022-09-07T14:53:38.337Z,1.60
2022-09-07T14:56:10.753Z,1.83
2022-09-07T14:58:43.083Z,1.58
2022-09-07T15:01:37.572Z,1.27
2022-09-07T15:04:18.084Z,2.10
2022-09-07T15:07:06.357Z,1.98
2022-09-07T15:09:38.722Z,1.73
2022-09-07T15:12:18.966Z,1.40
2022-09-07T15:14:51.440Z,1.95
2022-09-07T15:17:45.716Z,1.42
2022-09-07T15:20:34.798Z,1.70
2022-09-07T15:23:11.855Z,1.50
2022-09-07T15:25:50.667Z,1.50
2022-09-07T15:34:14.943Z,1.95
2022-09-07T15:36:49.796Z,1.70
2022-09-07T15:39:25.376Z,1.75
2022-09-07T15:42:00.397Z,2.10
2022-09-07T15:44:33.092Z,1.85
2022-09-07T15:49:57.859Z,1.58
2022-09-07T15:52:31.492Z,1.60
2022-09-07T15:55:07.997Z,2.10
2022-09-07T15:58:09.056Z,1.60
2022-09-07T16:00:33.143Z,2.58
2022-09-07T16:03:06.797Z,2.03
2022-09-07T16:05:40.360Z,1.52
2022-09-07T16:08:32.729Z,1.35
2022-09-07T16:11:18.656Z,1.80
2022-09-07T16:14:02.864Z,2.00
2022-09-07T16:19:27.751Z,2.20
2022-09-07T16:22:00.084Z,1.70
2022-09-07T16:24:33.515Z,1.35
2022-09-07T16:27:06.561Z,1.75
2022-09-07T16:29:38.960Z,2.00
2022-09-07T16:35:03.923Z,1.90
2022-09-07T16:37:36.884Z,1.88
2022-09-07T16:40:10.068Z,1.95
2022-09-07T16:42:43.055Z,2.45
2022-09-07T16:48:07.804Z,1.40
2022-09-07T16:50:40.110Z,2.00
2022-09-07T16:53:12.414Z,1.83
2022-09-07T16:55:44.723Z,1.90
2022-09-07T17:01:12.225Z,1.83
2022-09-07T17:03:45.158Z,1.50
2022-09-07T17:06:19.511Z,1.88
2022-09-07T17:08:52.311Z,2.67
2022-09-07T17:11:29.047Z,3.47
2022-09-07T17:14:04.302Z,1.90
2022-09-07T17:16:38.402Z,3.30
2022-09-07T17:22:05.075Z,3.08
2022-09-07T17:24:37.356Z,4.63
2022-09-07T17:27:09.694Z,3.47
2022-09-07T17:29:42.626Z,3.03
2022-09-07T17:32:23.772Z,2.38
2022-09-07T17:34:58.972Z,2.47
2022-09-07T17:37:31.723Z,2.60
2022-09-07T17:40:05.973Z,3.53
2022-09-07T17:45:36.676Z,2.50
2022-09-07T17:48:09.095Z,3.10
2022-09-07T17:50:42.594Z,3.78
2022-09-07T17:53:15.545Z,3.08
2022-09-07T17:55:47.868Z,2.75
2022-09-07T17:58:20.328Z,2.45
2022-09-07T18:00:53.855Z,3.03
2022-09-07T18:03:29.116Z,8.60
2022-09-07T18:06:05.692Z,9.15
2022-09-07T18:08:38.271Z,6.75
2022-09-07T18:14:06.035Z,3.58
2022-09-07T18:16:40.019Z,3.15
2022-09-07T18:19:13.651Z,2.45
2022-09-07T18:21:47.267Z,3.30
2022-09-07T18:24:27.419Z,2.50
2022-09-07T18:27:02.620Z,2.97
2022-09-07T18:29:35.247Z,3.13
2022-09-07T18:32:09.450Z,2.63
2022-09-07T18:34:44.792Z,2.00
2022-09-07T18:37:19.671Z,2.25
2022-09-07T18:39:54.385Z,1.85
2022-09-07T18:42:28.334Z,2.17
2022-09-07T18:47:55.002Z,2.50
2022-09-07T18:50:27.500Z,3.05
2022-09-07T18:53:14.090Z,2.95
2022-09-07T18:55:49.099Z,4.40
2022-09-07T18:58:24.368Z,2.85
2022-09-07T19:00:57.673Z,3.08
2022-09-07T19:03:30.975Z,3.10
2022-09-07T19:06:05.591Z,3.10
2022-09-07T19:08:39.708Z,3.85
2022-09-07T19:11:16.091Z,3.17
2022-09-07T19:13:48.576Z,3.70
2022-09-07T19:16:22.271Z,3.22
2022-09-07T19:18:56.853Z,3.97
2022-09-07T19:21:31.755Z,3.80
2022-09-07T19:24:06.417Z,3.47
2022-09-07T19:26:41.048Z,3.20
2022-09-07T19:29:16.189Z,2.63
2022-09-07T19:32:06.310Z,3.35
2022-09-07T19:34:41.456Z,3.53
2022-09-07T19:37:13.800Z,3.60
2022-09-07T19:39:47.884Z,3.15
2022-09-07T19:42:20.858Z,2.70
2022-09-07T19:44:56.878Z,3.25
2022-09-07T19:47:29.490Z,2.95
2022-09-07T19:50:02.868Z,3.28
2022-09-07T19:52:35.287Z,3.47
2022-09-07T19:55:08.535Z,2.28
2022-09-07T19:57:46.225Z,2.65
2022-09-07T20:00:18.730Z,3.22
2022-09-07T20:02:53.414Z,2.25
2022-09-07T20:05:31.354Z,2.30
2022-09-07T20:08:03.783Z,2.80
2022-09-07T20:10:36.248Z,3.00
2022-09-07T20:13:08.567Z,3.40
2022-09-07T20:15:41.537Z,3.25
2022-09-07T20:18:14.035Z,3.17
2022-09-07T20:20:47.185Z,2.67
2022-09-07T20:23:19.575Z,3.38
2022-09-07T20:25:58.926Z,3.00
2022-09-07T20:28:31.388Z,2.55
2022-09-07T20:31:08.196Z,2.88
2022-09-07T20:33:41.051Z,3.65
2022-09-07T20:36:15.851Z,2.38
2022-09-07T20:38:49.912Z,2.90
2022-09-07T20:41:24.117Z,2.92
2022-09-07T20:43:58.328Z,3.50
2022-09-07T20:46:31.322Z,3.38
2022-09-07T20:49:04.594Z,3.33
2022-09-07T20:51:38.684Z,2.47
2022-09-07T20:54:11.063Z,2.65
2022-09-07T20:56:43.354Z,3.15
2022-09-07T20:59:15.654Z,2.38
2022-09-07T21:01:48.737Z,2.75
2022-09-07T21:04:25.536Z,2.03
2022-09-07T21:06:58.500Z,2.65
2022-09-07T21:09:30.804Z,2.50
2022-09-07T21:12:03.331Z,3.28
2022-09-07T21:14:35.677Z,2.83
2022-09-07T21:17:07.975Z,2.50
2022-09-07T21:19:40.282Z,2.17
2022-09-07T21:22:13.335Z,1.85
2022-09-07T21:24:45.889Z,2.45
2022-09-07T21:27:18.166Z,2.22
2022-09-07T21:29:50.851Z,2.38
2022-09-07T21:32:23.220Z,2.42
2022-09-07T21:34:55.687Z,2.28
2022-09-07T21:37:28.707Z,2.20
2022-09-07T21:40:02.527Z,1.90
2022-09-07T21:42:35.036Z,1.95
2022-09-07T21:45:08.567Z,2.28
2022-09-07T21:47:40.864Z,2.20
2022-09-07T21:50:13.167Z,2.67
2022-09-07T21:52:46.130Z,2.70
2022-09-07T21:55:18.468Z,2.25
2022-09-07T21:57:50.763Z,2.58
2022-09-07T22:00:23.407Z,2.83
2022-09-07T22:02:55.669Z,2.22
2022-09-07T22:05:28.007Z,2.42
2022-09-07T22:08:01.133Z,2.35
2022-09-07T22:10:33.707Z,2.35
2022-09-07T22:13:06.055Z,2.25
2022-09-07T22:15:40.139Z,2.42
2022-09-07T22:18:12.554Z,2.53
2022-09-07T22:20:44.884Z,2.40
2022-09-07T22:23:17.986Z,2.40
2022-09-07T22:25:53.084Z,2.58
2022-09-07T22:28:25.431Z,2.00
2022-09-07T22:31:08.480Z,2.25
2022-09-07T22:33:41.922Z,2.72
2022-09-07T22:36:16.227Z,2.00
2022-09-07T22:38:51.965Z,2.20
2022-09-07T22:41:26.735Z,1.80
2022-09-07T22:44:06.957Z,2.40
2022-09-07T22:46:41.733Z,3.03
2022-09-07T22:49:15.580Z,1.92
2022-09-07T22:51:47.918Z,2.63
2022-09-07T22:54:21.154Z,3.05
2022-09-07T22:56:53.508Z,2.75
2022-09-07T22:59:25.904Z,2.67
2022-09-07T23:01:58.225Z,2.47
2022-09-07T23:04:31.815Z,1.85
2022-09-07T23:07:06.862Z,2.10
2022-09-07T23:09:39.858Z,2.78
2022-09-07T23:12:12.139Z,2.83
2022-09-07T23:14:44.447Z,2.20
2022-09-07T23:17:16.996Z,2.40
2022-09-07T23:19:49.281Z,3.78
2022-09-07T23:22:21.607Z,2.50
2022-09-07T23:24:54.722Z,3.22
2022-09-07T23:27:27.211Z,3.33
2022-09-07T23:29:59.510Z,2.13
2022-09-07T23:32:31.918Z,2.58
2022-09-07T23:35:05.293Z,2.60
2022-09-07T23:37:37.624Z,2.15
2022-09-07T23:40:11.033Z,2.20
2022-09-07T23:42:43.399Z,2.17
2022-09-07T23:45:15.902Z,2.05
2022-09-07T23:47:48.251Z,2.40
2022-09-07T23:50:20.542Z,2.33
2022-09-07T23:52:52.844Z,2.05
2022-09-07T23:55:25.899Z,3.08
2022-09-07T23:57:58.207Z,2.55
